Time;durP1;ratioP1;P1;durP2;ratioP2;P2;SDS_P1;SDS_P2;PMS_P1;PMS_P2;Temp;Humidity;BMP_temperature;BMP_pressure;BME280_temperature;BME280_humidity;BME280_pressure;Samples;Min_cycle;Max_cycle;Signal;HPM_P1;HPM_P2
2022/07/15 00:02:06;;;;;;;4.63;4.22;;;29.50;1.00;;;;;;5151308;27;20026;-46
2022/07/15 00:04:32;;;;;;;4.78;4.30;;;29.50;1.00;;;;;;5150598;27;20027;-46
2022/07/15 00:06:58;;;;;;;4.55;4.03;;;29.30;1.00;;;;;;5140115;27;20093;-46
2022/07/15 00:10:13;;;;;;;5.20;4.88;;;29.40;1.00;;;;;;5153944;27;20148;-45
2022/07/15 00:12:10;;;;;;;5.70;4.93;;;29.30;1.00;;;;;;5151324;27;20064;-48
2022/07/15 00:14:36;;;;;;;9.00;5.25;;;29.30;1.00;;;;;;5150903;27;20042;-46
2022/07/15 00:17:02;;;;;;;7.28;4.85;;;29.20;1.00;;;;;;5151299;27;20026;-47
2022/07/15 00:19:28;;;;;;;5.10;4.35;;;29.10;1.00;;;;;;5149550;27;20035;-46
2022/07/15 00:21:53;;;;;;;5.88;4.95;;;29.20;1.00;;;;;;5151246;27;20756;-46
2022/07/15 00:24:19;;;;;;;4.70;4.32;;;29.10;1.00;;;;;;5154527;27;20037;-46
2022/07/15 00:26:45;;;;;;;4.70;4.30;;;29.20;1.00;;;;;;5151803;27;20019;-47
2022/07/15 00:29:10;;;;;;;4.55;4.15;;;29.20;1.00;;;;;;5149703;27;20034;-45
2022/07/15 00:31:36;;;;;;;6.22;4.97;;;29.10;1.00;;;;;;5145996;27;20023;-45
2022/07/15 00:34:02;;;;;;;5.03;4.63;;;29.00;1.00;;;;;;5145985;27;20033;-49
2022/07/15 00:36:29;;;;;;;4.93;4.45;;;29.00;1.00;;;;;;5150300;27;20026;-47
2022/07/15 00:38:54;;;;;;;4.97;4.57;;;29.00;1.00;;;;;;5143676;27;20038;-45
2022/07/15 00:41:43;;;;;;;6.07;4.45;;;29.00;1.00;;;;;;5150355;27;20018;-45
2022/07/15 00:44:09;;;;;;;5.10;4.70;;;28.80;1.00;;;;;;5150172;27;20102;-46
2022/07/15 00:46:52;;;;;;;5.10;4.60;;;28.90;1.00;;;;;;5150243;27;20049;-45
2022/07/15 00:49:18;;;;;;;4.80;4.45;;;28.90;1.00;;;;;;5151062;27;20078;-46
2022/07/15 00:51:47;;;;;;;6.13;4.60;;;28.70;1.00;;;;;;5151621;27;20035;-47
2022/07/15 00:54:15;;;;;;;5.00;4.60;;;28.90;1.00;;;;;;5147078;27;20420;-48
2022/07/15 00:56:47;;;;;;;5.38;4.88;;;28.80;1.00;;;;;;5144816;27;20049;-48
2022/07/15 00:59:15;;;;;;;5.68;4.43;;;28.70;1.00;;;;;;5150440;27;20037;-45
2022/07/15 01:01:42;;;;;;;6.28;5.47;;;28.70;1.00;;;;;;5147857;27;20060;-45
2022/07/15 01:04:10;;;;;;;5.47;4.97;;;28.80;1.00;;;;;;5151788;27;20026;-45
2022/07/15 01:06:36;;;;;;;8.45;5.18;;;28.90;1.00;;;;;;5151623;27;20023;-47
2022/07/15 01:09:02;;;;;;;5.80;5.30;;;29.00;1.00;;;;;;5153941;27;20033;-46
2022/07/15 01:11:30;;;;;;;6.78;5.47;;;29.00;1.00;;;;;;5148309;27;20018;-45
2022/07/15 01:13:57;;;;;;;5.90;5.40;;;28.90;1.00;;;;;;5151947;27;20031;-49
2022/07/15 01:16:23;;;;;;;7.60;5.55;;;28.80;1.00;;;;;;5150256;27;20106;-52
2022/07/15 01:18:48;;;;;;;6.60;5.22;;;28.60;1.00;;;;;;5152179;27;20223;-49
2022/07/15 01:21:14;;;;;;;5.97;5.43;;;28.60;1.00;;;;;;5149449;27;20030;-52
2022/07/15 01:23:42;;;;;;;5.78;5.28;;;28.60;1.00;;;;;;5153726;27;20052;-48
2022/07/15 01:26:11;;;;;;;5.65;5.10;;;28.60;1.00;;;;;;5147335;27;20013;-47
2022/07/15 01:28:37;;;;;;;5.75;5.25;;;28.50;1.00;;;;;;5147117;27;20046;-46
2022/07/15 01:31:03;;;;;;;5.80;5.25;;;28.60;1.00;;;;;;5145195;27;20015;-45
2022/07/15 01:33:30;;;;;;;5.28;4.80;;;28.60;1.00;;;;;;5151824;27;20030;-46
2022/07/15 01:35:55;;;;;;;5.65;5.07;;;28.50;1.00;;;;;;5148644;27;20098;-46
2022/07/15 01:38:21;;;;;;;5.95;4.68;;;28.60;1.00;;;;;;5151844;27;20117;-51
2022/07/15 01:40:47;;;;;;;5.72;5.20;;;28.50;1.00;;;;;;5150905;27;20505;-46
2022/07/15 01:43:12;;;;;;;6.38;4.60;;;28.50;1.00;;;;;;5146294;27;20037;-45
2022/07/15 01:45:43;;;;;;;4.85;4.45;;;28.50;1.00;;;;;;5146976;27;20494;-45
2022/07/15 01:49:21;;;;;;;5.93;5.30;;;28.50;1.00;;;;;;5149047;27;20487;-51
2022/07/15 01:50:56;;;;;;;6.85;4.88;;;28.30;1.00;;;;;;5148090;27;20806;-45
2022/07/15 01:53:22;;;;;;;5.30;4.80;;;28.30;1.00;;;;;;5148894;27;20030;-46
2022/07/15 01:55:47;;;;;;;5.60;4.82;;;28.40;1.00;;;;;;5150776;27;20030;-47
2022/07/15 01:58:13;;;;;;;4.88;4.38;;;28.40;1.00;;;;;;5150428;27;20171;-45
2022/07/15 02:00:39;;;;;;;5.38;4.80;;;28.40;1.00;;;;;;5151417;27;20455;-46
2022/07/15 02:03:04;;;;;;;4.70;4.38;;;28.40;1.00;;;;;;5147758;27;20033;-48
2022/07/15 02:05:30;;;;;;;5.70;5.22;;;28.50;1.00;;;;;;5152369;27;20098;-46
2022/07/15 02:07:55;;;;;;;5.07;4.65;;;28.50;1.00;;;;;;5147648;27;20031;-47
2022/07/15 02:10:21;;;;;;;4.80;4.40;;;28.40;1.00;;;;;;5147172;27;20427;-45
2022/07/15 02:12:47;;;;;;;5.00;4.50;;;28.40;1.00;;;;;;5145759;27;20121;-45
2022/07/15 02:15:12;;;;;;;4.63;4.22;;;28.20;1.00;;;;;;5146148;27;20031;-45
2022/07/15 02:17:38;;;;;;;4.65;4.18;;;28.20;1.00;;;;;;5148584;27;20031;-44
2022/07/15 02:20:04;;;;;;;5.00;4.57;;;28.20;1.00;;;;;;5143886;27;20454;-48
2022/07/15 02:22:30;;;;;;;4.97;4.55;;;28.30;1.00;;;;;;5142915;27;20026;-45
2022/07/15 02:24:55;;;;;;;4.63;4.22;;;28.10;1.00;;;;;;5139111;27;20027;-47
2022/07/15 02:27:21;;;;;;;4.78;4.38;;;28.10;1.00;;;;;;5143508;27;20023;-48
2022/07/15 02:29:46;;;;;;;4.20;3.88;;;28.10;1.00;;;;;;5153672;27;20033;-46
2022/07/15 02:32:12;;;;;;;4.45;4.05;;;28.10;1.00;;;;;;5154655;27;20425;-45
2022/07/15 02:34:38;;;;;;;4.97;4.43;;;28.10;1.00;;;;;;5155416;27;20050;-46
2022/07/15 02:37:03;;;;;;;5.15;4.47;;;28.10;1.00;;;;;;5154637;27;20106;-47
2022/07/15 02:39:29;;;;;;;4.32;3.95;;;28.20;1.00;;;;;;5155678;27;20430;-45
2022/07/15 02:41:54;;;;;;;5.18;4.32;;;28.20;1.00;;;;;;5153341;27;20031;-46
2022/07/15 02:44:20;;;;;;;6.82;4.57;;;28.20;1.00;;;;;;5154346;27;20121;-45
2022/07/15 02:46:46;;;;;;;4.25;3.88;;;28.00;1.00;;;;;;5152837;27;20428;-47
2022/07/15 02:49:11;;;;;;;4.82;4.40;;;28.00;1.00;;;;;;5155537;27;20023;-46
2022/07/15 02:51:37;;;;;;;5.13;4.63;;;28.00;1.00;;;;;;5153882;27;20039;-47
2022/07/15 02:54:03;;;;;;;4.90;4.40;;;28.10;1.00;;;;;;5156451;27;20023;-48
2022/07/15 02:56:28;;;;;;;5.38;4.00;;;28.00;1.00;;;;;;5155653;27;20033;-46
2022/07/15 02:58:54;;;;;;;5.45;4.25;;;27.90;1.00;;;;;;5155574;27;20089;-51
2022/07/15 03:01:19;;;;;;;6.95;4.10;;;28.00;1.00;;;;;;5152397;27;20031;-46
2022/07/15 03:03:45;;;;;;;5.30;3.95;;;28.00;1.00;;;;;;5151509;27;20091;-47
2022/07/15 03:06:11;;;;;;;4.97;4.50;;;28.00;1.00;;;;;;5141629;27;20035;-48
2022/07/15 03:08:36;;;;;;;4.57;4.18;;;27.90;1.00;;;;;;5151434;27;20064;-48
2022/07/15 03:11:02;;;;;;;4.20;3.90;;;28.00;1.00;;;;;;5155835;27;20106;-46
2022/07/15 03:13:28;;;;;;;4.35;4.03;;;28.10;1.00;;;;;;5154066;27;20085;-48
2022/07/15 03:15:54;;;;;;;4.38;3.78;;;28.10;1.00;;;;;;5153041;27;20027;-47
2022/07/15 03:18:20;;;;;;;4.78;4.03;;;28.10;1.00;;;;;;5151148;27;20369;-49
2022/07/15 03:20:46;;;;;;;4.97;4.47;;;28.00;1.00;;;;;;5156417;27;20102;-50
2022/07/15 03:23:12;;;;;;;4.72;4.32;;;28.10;1.00;;;;;;5151073;27;20034;-48
2022/07/15 03:25:38;;;;;;;4.60;4.30;;;28.10;1.00;;;;;;5155146;27;20344;-46
2022/07/15 03:28:04;;;;;;;4.38;3.85;;;28.00;1.00;;;;;;5151591;27;20105;-47
2022/07/15 03:30:29;;;;;;;4.35;4.05;;;28.00;1.00;;;;;;5154297;27;20065;-48
2022/07/15 03:32:55;;;;;;;5.18;4.40;;;28.00;1.00;;;;;;5148714;27;20043;-45
2022/07/15 03:35:21;;;;;;;4.40;4.00;;;27.90;1.00;;;;;;5144825;27;20123;-48
2022/07/15 03:37:47;;;;;;;5.32;4.07;;;27.90;1.00;;;;;;5151903;27;20101;-51
2022/07/15 03:40:12;;;;;;;5.68;4.22;;;27.80;1.00;;;;;;5153189;27;20122;-46
2022/07/15 03:42:38;;;;;;;4.30;4.00;;;27.80;1.00;;;;;;5152988;27;20030;-51
2022/07/15 03:45:04;;;;;;;5.53;4.07;;;27.80;1.00;;;;;;5154362;27;20025;-47
2022/07/15 03:47:30;;;;;;;5.15;4.18;;;27.80;1.00;;;;;;5151829;27;20027;-46
2022/07/15 03:49:56;;;;;;;4.95;4.55;;;27.80;1.00;;;;;;5153735;27;20180;-45
2022/07/15 03:52:21;;;;;;;5.72;5.22;;;27.80;1.00;;;;;;5152507;27;20125;-47
2022/07/15 03:54:47;;;;;;;6.40;4.70;;;27.80;1.00;;;;;;5152504;27;20031;-47
2022/07/15 03:57:12;;;;;;;4.80;4.22;;;27.80;1.00;;;;;;5149522;27;20536;-46
2022/07/15 03:59:38;;;;;;;5.43;4.57;;;27.70;1.00;;;;;;5155422;27;20034;-49
2022/07/15 04:02:03;;;;;;;5.95;5.35;;;27.60;1.00;;;;;;5152003;27;20023;-49
2022/07/15 04:04:29;;;;;;;5.63;5.05;;;27.60;1.00;;;;;;5149023;27;20048;-47
2022/07/15 04:06:55;;;;;;;6.38;5.70;;;27.60;1.00;;;;;;5152075;27;20083;-48
2022/07/15 04:09:20;;;;;;;6.57;5.32;;;27.60;1.00;;;;;;5154382;27;20054;-47
2022/07/15 04:11:46;;;;;;;6.00;5.40;;;27.80;1.00;;;;;;5153972;27;20508;-47
2022/07/15 04:14:13;;;;;;;5.70;4.60;;;27.80;1.00;;;;;;5153652;27;20019;-46
2022/07/15 04:16:38;;;;;;;5.78;5.28;;;27.70;1.00;;;;;;5153720;27;20098;-47
2022/07/15 04:19:05;;;;;;;5.82;4.88;;;27.70;1.00;;;;;;5150985;27;20115;-49
2022/07/15 04:21:31;;;;;;;4.88;4.43;;;27.80;1.00;;;;;;5154533;27;20371;-48
2022/07/15 04:23:56;;;;;;;6.55;4.43;;;27.80;1.00;;;;;;5149670;27;20037;-47
2022/07/15 04:26:22;;;;;;;6.68;4.57;;;27.80;1.00;;;;;;5152567;27;20464;-49
2022/07/15 04:28:48;;;;;;;5.30;4.72;;;27.60;1.00;;;;;;5151566;27;20031;-47
2022/07/15 04:31:13;;;;;;;5.00;4.50;;;27.50;1.00;;;;;;5153502;27;20026;-46
2022/07/15 04:33:39;;;;;;;4.97;4.63;;;27.40;1.00;;;;;;5148858;27;20117;-46
2022/07/15 04:36:04;;;;;;;4.57;4.15;;;27.40;1.00;;;;;;5151370;27;20050;-47
2022/07/15 04:38:30;;;;;;;4.05;3.72;;;27.50;1.00;;;;;;5147310;27;20341;-46
2022/07/15 04:40:56;;;;;;;4.80;3.90;;;27.60;1.00;;;;;;5154388;27;20106;-48
2022/07/15 04:43:21;;;;;;;4.90;3.85;;;27.50;1.00;;;;;;5152376;27;20460;-46
2022/07/15 04:45:47;;;;;;;8.50;4.72;;;27.50;1.00;;;;;;5151453;27;20018;-45
2022/07/15 04:50:57;;;;;;;4.38;3.97;;;27.30;1.00;;;;;;5149136;27;20537;-45
2022/07/15 04:53:23;;;;;;;6.53;4.13;;;27.40;1.00;;;;;;5150171;27;20030;-47
2022/07/15 04:55:49;;;;;;;5.15;4.20;;;27.30;1.00;;;;;;5153624;27;20420;-46
2022/07/15 04:58:15;;;;;;;4.10;3.70;;;27.10;1.00;;;;;;5151688;27;20042;-45
2022/07/15 05:00:45;;;;;;;4.03;3.72;;;27.20;1.00;;;;;;5150123;27;20063;-45
2022/07/15 05:03:11;;;;;;;6.15;4.32;;;27.30;1.00;;;;;;5151847;27;20038;-45
2022/07/15 05:05:37;;;;;;;5.85;4.40;;;27.30;1.00;;;;;;5150077;27;20023;-47
2022/07/15 05:08:03;;;;;;;6.50;4.47;;;27.30;1.00;;;;;;5151376;27;20027;-46
2022/07/15 05:10:28;;;;;;;4.40;4.10;;;27.30;1.00;;;;;;5151964;27;20126;-46
2022/07/15 05:12:54;;;;;;;9.48;4.03;;;27.30;1.00;;;;;;5149651;27;20115;-46
2022/07/15 05:15:20;;;;;;;5.25;4.32;;;27.30;1.00;;;;;;5147714;27;20080;-48
2022/07/15 05:17:45;;;;;;;5.63;4.53;;;27.30;1.00;;;;;;5150585;27;20025;-46
2022/07/15 05:20:11;;;;;;;4.28;3.97;;;27.30;1.00;;;;;;5149284;27;20091;-47
2022/07/15 05:22:37;;;;;;;4.88;4.38;;;27.20;1.00;;;;;;5152792;27;20042;-46
2022/07/15 05:25:03;;;;;;;5.15;4.65;;;27.30;1.00;;;;;;5152817;27;20354;-48
2022/07/15 05:27:28;;;;;;;5.10;4.32;;;27.30;1.00;;;;;;5140620;27;20105;-48
2022/07/15 05:29:54;;;;;;;6.53;4.32;;;27.30;1.00;;;;;;5152548;27;20041;-47
2022/07/15 05:32:20;;;;;;;4.68;3.95;;;27.30;1.00;;;;;;5144098;27;20068;-46
2022/07/15 05:34:46;;;;;;;4.75;4.40;;;27.30;1.00;;;;;;5139884;27;20047;-50
2022/07/15 05:37:12;;;;;;;5.22;3.90;;;27.30;1.00;;;;;;5141502;27;20094;-47
2022/07/15 05:39:53;;;;;;;5.90;4.22;;;27.40;1.00;;;;;;5142442;27;20436;-48
2022/07/15 05:42:22;;;;;;;4.55;3.78;;;27.40;1.00;;;;;;5141192;27;20416;-46
2022/07/15 05:44:48;;;;;;;7.85;4.68;;;27.60;1.00;;;;;;5146842;27;20039;-46
2022/07/15 05:47:14;;;;;;;8.30;4.60;;;27.50;1.00;;;;;;5144646;27;22361;-45
2022/07/15 05:49:40;;;;;;;4.32;3.92;;;27.50;1.00;;;;;;5149616;27;20348;-45
2022/07/15 05:52:06;;;;;;;7.40;4.07;;;27.40;1.00;;;;;;5150227;27;20023;-45
2022/07/15 05:54:31;;;;;;;6.40;4.90;;;27.40;1.00;;;;;;5151097;27;20118;-47
2022/07/15 05:56:58;;;;;;;4.88;4.45;;;27.50;1.00;;;;;;5150682;27;20030;-48
2022/07/15 05:59:23;;;;;;;7.60;4.00;;;27.40;1.00;;;;;;5149509;27;20058;-49
2022/07/15 06:01:49;;;;;;;6.57;4.30;;;27.60;1.00;;;;;;5148246;27;20103;-47
2022/07/15 06:04:14;;;;;;;5.22;4.22;;;27.60;1.00;;;;;;5148336;27;20056;-49
2022/07/15 06:06:40;;;;;;;6.38;4.35;;;27.60;1.00;;;;;;5144005;27;20029;-44
2022/07/15 06:09:06;;;;;;;7.47;4.50;;;27.70;1.00;;;;;;5148925;27;20030;-45
2022/07/15 06:11:31;;;;;;;4.57;4.22;;;27.60;1.00;;;;;;5151345;27;20105;-46
2022/07/15 06:13:57;;;;;;;6.75;5.05;;;27.60;1.00;;;;;;5141601;27;20422;-45
2022/07/15 06:16:22;;;;;;;5.70;4.15;;;27.60;1.00;;;;;;5143714;27;20448;-45
2022/07/15 06:18:50;;;;;;;4.65;4.20;;;27.70;1.00;;;;;;5140022;27;20035;-45
2022/07/15 06:21:16;;;;;;;6.90;4.30;;;27.80;1.00;;;;;;5146380;27;20464;-45
2022/07/15 06:23:41;;;;;;;4.93;4.47;;;27.70;1.00;;;;;;5146325;27;20019;-49
2022/07/15 06:26:07;;;;;;;5.40;4.15;;;27.80;1.00;;;;;;5142149;27;20027;-49
2022/07/15 06:28:33;;;;;;;5.03;4.47;;;27.90;1.00;;;;;;5150455;27;20057;-47
2022/07/15 06:30:58;;;;;;;7.03;4.80;;;27.90;1.00;;;;;;5147147;27;20031;-50
2022/07/15 06:33:25;;;;;;;6.35;5.03;;;27.90;1.00;;;;;;5140441;27;20480;-47
2022/07/15 06:35:50;;;;;;;6.45;4.97;;;28.00;1.00;;;;;;5152021;27;20433;-45
2022/07/15 06:38:16;;;;;;;6.63;4.30;;;28.10;1.00;;;;;;5143848;27;20044;-45
2022/07/15 06:40:42;;;;;;;8.40;5.45;;;28.10;1.00;;;;;;5138158;27;20034;-46
2022/07/15 06:43:08;;;;;;;6.20;5.60;;;28.10;1.00;;;;;;5148876;27;20030;-46
2022/07/15 06:45:33;;;;;;;5.53;4.95;;;28.00;1.00;;;;;;5151535;27;20403;-47
2022/07/15 06:47:59;;;;;;;6.20;5.25;;;28.10;1.00;;;;;;5150853;27;20479;-45
2022/07/15 06:50:25;;;;;;;8.90;5.68;;;28.10;1.00;;;;;;5148207;27;20437;-45
2022/07/15 06:52:51;;;;;;;8.60;5.07;;;28.20;1.00;;;;;;5149614;27;20136;-48
2022/07/15 06:55:17;;;;;;;7.53;5.05;;;28.20;1.00;;;;;;5149821;27;20019;-50
2022/07/15 06:57:42;;;;;;;8.63;5.97;;;28.30;1.00;;;;;;5148619;27;20487;-46
2022/07/15 07:00:11;;;;;;;12.25;6.03;;;28.30;1.00;;;;;;5147740;27;20120;-48
2022/07/15 07:02:37;;;;;;;8.35;6.35;;;28.30;1.00;;;;;;5153823;27;20027;-46
2022/07/15 07:05:05;;;;;;;8.57;6.22;;;28.30;1.00;;;;;;5146714;27;20042;-47
2022/07/15 07:07:30;;;;;;;10.60;6.72;;;28.30;1.00;;;;;;5148360;27;20050;-47
2022/07/15 07:09:56;;;;;;;6.32;5.75;;;28.30;1.00;;;;;;5151769;27;20102;-53
2022/07/15 07:12:22;;;;;;;7.07;5.60;;;28.40;1.00;;;;;;5151659;27;20054;-47
2022/07/15 07:14:47;;;;;;;8.43;6.35;;;28.40;1.00;;;;;;5149635;27;20093;-49
2022/07/15 07:17:13;;;;;;;9.13;6.00;;;28.40;1.00;;;;;;5151698;27;20030;-46
2022/07/15 07:19:38;;;;;;;8.13;5.95;;;28.40;1.00;;;;;;5152021;27;20035;-51
2022/07/15 07:22:04;;;;;;;5.82;5.25;;;28.50;1.00;;;;;;5150812;27;20026;-48
2022/07/15 07:24:30;;;;;;;8.63;6.03;;;28.50;1.00;;;;;;5151255;27;20050;-48
2022/07/15 07:26:56;;;;;;;6.57;5.90;;;28.40;1.00;;;;;;5152646;27;20052;-49
2022/07/15 07:29:25;;;;;;;10.75;6.38;;;28.50;1.00;;;;;;5151602;27;20030;-47
2022/07/15 07:31:51;;;;;;;6.30;5.53;;;28.60;1.00;;;;;;5150371;27;20015;-47
2022/07/15 07:34:17;;;;;;;9.40;6.07;;;28.70;1.00;;;;;;5153207;27;20119;-47
2022/07/15 07:36:44;;;;;;;8.63;6.90;;;28.80;1.00;;;;;;5150601;27;20027;-48
2022/07/15 07:39:10;;;;;;;7.53;6.82;;;28.80;1.00;;;;;;5145363;27;20376;-48
2022/07/15 07:41:36;;;;;;;6.90;6.03;;;28.80;1.00;;;;;;5152488;27;20018;-50
2022/07/15 07:44:01;;;;;;;7.97;7.25;;;28.80;1.00;;;;;;5151182;27;20035;-47
2022/07/15 07:46:27;;;;;;;9.93;7.05;;;28.80;1.00;;;;;;5152768;27;20050;-51
2022/07/15 07:48:53;;;;;;;7.75;6.97;;;28.90;1.00;;;;;;5152595;27;20042;-50
2022/07/15 07:51:19;;;;;;;7.10;6.50;;;28.90;1.00;;;;;;5148419;27;20415;-49
2022/07/15 07:53:46;;;;;;;8.05;7.25;;;28.90;1.00;;;;;;5144355;27;20022;-48
2022/07/15 07:56:12;;;;;;;9.23;7.15;;;28.90;1.00;;;;;;5152354;27;20011;-48
2022/07/15 07:58:39;;;;;;;8.98;8.07;;;29.00;1.00;;;;;;5144167;27;20395;-52
2022/07/15 08:01:05;;;;;;;7.90;6.93;;;29.00;1.00;;;;;;5150454;27;20030;-49
2022/07/15 08:03:30;;;;;;;11.60;8.50;;;29.10;1.00;;;;;;5149364;27;20022;-49
2022/07/15 08:05:56;;;;;;;12.45;8.25;;;29.10;1.00;;;;;;5149260;27;20065;-54
2022/07/15 08:08:25;;;;;;;14.32;8.50;;;29.10;1.00;;;;;;5146975;27;20931;-50
2022/07/15 08:10:55;;;;;;;8.82;7.97;;;29.20;1.00;;;;;;5154155;27;20361;-48
2022/07/15 08:13:24;;;;;;;8.82;7.97;;;29.20;1.00;;;;;;5149952;27;20102;-45
2022/07/15 08:15:53;;;;;;;9.27;8.43;;;29.10;1.00;;;;;;5142959;27;20023;-47
2022/07/15 08:18:20;;;;;;;9.55;7.28;;;29.20;1.00;;;;;;5145603;27;20018;-48
2022/07/15 08:20:46;;;;;;;8.35;7.65;;;29.20;1.00;;;;;;5143834;27;20756;-48
2022/07/15 08:23:14;;;;;;;9.23;8.43;;;29.30;1.00;;;;;;5149479;27;20052;-49
2022/07/15 08:25:39;;;;;;;10.98;8.38;;;29.30;1.00;;;;;;5148255;27;20011;-48
2022/07/15 08:28:06;;;;;;;9.13;7.55;;;29.30;1.00;;;;;;5146169;27;20513;-48
2022/07/15 08:30:33;;;;;;;10.15;9.00;;;29.20;1.00;;;;;;5147527;27;20030;-50
2022/07/15 08:32:59;;;;;;;9.85;8.35;;;29.30;1.00;;;;;;5153210;27;20095;-51
2022/07/15 08:35:27;;;;;;;9.82;8.82;;;29.40;1.00;;;;;;5153992;27;20432;-47
2022/07/15 08:37:53;;;;;;;9.60;8.77;;;29.60;1.00;;;;;;5146328;27;20118;-47
2022/07/15 08:40:19;;;;;;;9.27;7.93;;;29.60;1.00;;;;;;5150449;27;20038;-48
2022/07/15 08:42:45;;;;;;;11.02;9.88;;;29.70;1.00;;;;;;5154225;27;20037;-49
2022/07/15 08:45:12;;;;;;;9.95;8.60;;;29.70;1.00;;;;;;5154141;27;20460;-47
2022/07/15 08:47:41;;;;;;;10.20;9.30;;;29.70;1.00;;;;;;5154836;27;20026;-46
2022/07/15 08:50:11;;;;;;;11.45;9.95;;;29.80;1.00;;;;;;5144538;27;20035;-51
2022/07/15 08:52:38;;;;;;;11.95;9.48;;;29.90;1.00;;;;;;5150960;27;20053;-47
2022/07/15 08:55:04;;;;;;;9.98;9.23;;;30.00;1.00;;;;;;5140873;27;20035;-47
2022/07/15 08:57:29;;;;;;;11.32;9.50;;;30.00;1.00;;;;;;5147064;27;20107;-49
2022/07/15 08:59:55;;;;;;;10.90;9.88;;;30.00;1.00;;;;;;5145296;27;20537;-48
2022/07/15 09:02:21;;;;;;;12.40;10.30;;;30.00;1.00;;;;;;5150082;27;20174;-47
2022/07/15 09:05:18;;;;;;;10.25;9.23;;;30.20;1.00;;;;;;5144422;27;20044;-47
2022/07/15 09:07:54;;;;;;;10.05;9.10;;;30.20;1.00;;;;;;5137724;27;20022;-46
2022/07/15 09:10:24;;;;;;;9.55;8.68;;;30.40;1.00;;;;;;5148395;27;20520;-48
2022/07/15 09:12:52;;;;;;;9.60;8.68;;;30.30;1.00;;;;;;5151156;27;20467;-46
2022/07/15 09:15:33;;;;;;;9.57;8.50;;;30.30;1.00;;;;;;5153710;27;20026;-47
2022/07/15 09:18:17;;;;;;;8.13;7.53;;;30.30;1.00;;;;;;5151900;27;20387;-47
2022/07/15 09:20:44;;;;;;;10.80;9.00;;;30.30;1.00;;;;;;5142130;27;20026;-46
2022/07/15 09:23:11;;;;;;;8.43;7.57;;;30.30;1.00;;;;;;5152397;27;20490;-48
2022/07/15 09:25:38;;;;;;;8.68;7.78;;;30.50;1.00;;;;;;5149283;27;20037;-47
2022/07/15 09:28:06;;;;;;;8.63;7.57;;;30.50;1.00;;;;;;5151504;27;20069;-47
2022/07/15 09:36:02;;;;;;;8.75;7.82;;;30.70;1.00;;;;;;5147502;27;20042;-46
2022/07/15 09:38:41;;;;;;;8.18;7.43;;;30.60;1.00;;;;;;5152114;27;20056;-47
2022/07/15 09:41:13;;;;;;;8.68;7.78;;;30.60;1.00;;;;;;5153415;27;20057;-46
2022/07/15 09:43:54;;;;;;;9.32;8.32;;;30.70;1.00;;;;;;5151344;27;20083;-49
2022/07/15 09:46:21;;;;;;;9.32;8.07;;;30.90;1.00;;;;;;5153322;27;20510;-47
2022/07/15 09:48:49;;;;;;;9.45;7.57;;;30.90;1.00;;;;;;5152583;27;20099;-50
2022/07/15 09:51:16;;;;;;;8.32;7.53;;;30.90;1.00;;;;;;5151494;27;20015;-48
2022/07/15 09:53:42;;;;;;;9.40;7.78;;;31.00;1.00;;;;;;5152366;27;20032;-53
2022/07/15 09:56:14;;;;;;;11.48;7.30;;;31.10;1.00;;;;;;5153379;27;20026;-48
2022/07/15 09:58:42;;;;;;;8.57;7.00;;;31.20;1.00;;;;;;5151395;27;20035;-47
2022/07/15 10:01:11;;;;;;;9.32;8.48;;;31.30;1.00;;;;;;5152798;27;20103;-47
2022/07/15 10:03:38;;;;;;;10.23;7.75;;;31.40;1.00;;;;;;5152799;27;20030;-47
2022/07/15 10:06:04;;;;;;;8.60;7.80;;;31.40;1.00;;;;;;5153273;27;20027;-50
2022/07/15 10:08:34;;;;;;;9.68;8.05;;;31.60;1.00;;;;;;5143476;27;20034;-46
2022/07/15 10:11:00;;;;;;;8.35;7.53;;;31.60;1.00;;;;;;5150632;27;20053;-46
2022/07/15 10:14:03;;;;;;;8.73;7.82;;;31.60;1.00;;;;;;5147543;27;20368;-46
2022/07/15 10:16:49;;;;;;;9.27;8.38;;;31.60;1.00;;;;;;5152196;27;20015;-46
2022/07/15 10:19:36;;;;;;;8.63;7.82;;;31.70;1.00;;;;;;5143815;27;20087;-49
2022/07/15 10:22:23;;;;;;;14.50;9.63;;;31.80;1.00;;;;;;5146786;27;20023;-51
2022/07/15 10:25:15;;;;;;;8.77;7.97;;;31.80;1.00;;;;;;5150354;27;20023;-46
2022/07/15 10:28:02;;;;;;;11.50;8.75;;;31.90;1.00;;;;;;5146045;27;20321;-47
2022/07/15 10:30:28;;;;;;;8.85;8.02;;;31.90;1.00;;;;;;5148974;27;20129;-46
2022/07/15 10:33:03;;;;;;;9.02;8.10;;;32.00;1.00;;;;;;5148793;27;20109;-46
2022/07/15 10:35:51;;;;;;;8.40;7.70;;;32.10;1.00;;;;;;5150953;27;20054;-47
2022/07/15 10:38:25;;;;;;;9.95;8.38;;;32.20;1.00;;;;;;5147009;27;20059;-46
2022/07/15 10:41:07;;;;;;;8.40;7.63;;;32.20;1.00;;;;;;5152673;27;20039;-46
2022/07/15 10:43:53;;;;;;;9.40;8.45;;;32.30;1.00;;;;;;5149190;27;20026;-46
2022/07/15 10:46:27;;;;;;;9.02;8.30;;;32.30;1.00;;;;;;5144633;27;20027;-46
2022/07/15 10:49:12;;;;;;;8.80;8.00;;;32.30;1.00;;;;;;5150204;27;20034;-49
2022/07/15 10:51:38;;;;;;;11.27;9.38;;;32.60;1.00;;;;;;5152232;27;20038;-47
2022/07/15 10:54:25;;;;;;;11.75;9.25;;;32.60;1.00;;;;;;5150533;27;20095;-49
2022/07/15 10:56:51;;;;;;;8.98;8.07;;;32.70;1.00;;;;;;5132906;27;20027;-53
2022/07/15 10:59:21;;;;;;;8.25;7.15;;;32.80;1.00;;;;;;5151229;27;20045;-54
2022/07/15 11:02:07;;;;;;;9.18;8.27;;;33.10;1.00;;;;;;5154397;27;20467;-54
2022/07/15 11:04:34;;;;;;;12.40;8.65;;;33.10;1.00;;;;;;5146337;27;20121;-55
2022/07/15 11:07:09;;;;;;;10.25;7.63;;;33.10;1.00;;;;;;5153353;27;20102;-52
2022/07/15 11:10:02;;;;;;;9.23;8.32;;;33.20;1.00;;;;;;5147665;27;20027;-51
2022/07/15 11:12:30;;;;;;;8.70;7.90;;;33.30;1.00;;;;;;5152512;27;20026;-49
2022/07/15 11:15:03;;;;;;;8.23;7.43;;;33.20;1.00;;;;;;5151660;27;20022;-48
2022/07/15 11:17:28;;;;;;;8.48;7.53;;;33.30;1.00;;;;;;5152896;27;20079;-51
2022/07/15 11:19:59;;;;;;;10.05;7.97;;;33.40;1.00;;;;;;5151385;27;20034;-53
2022/07/15 11:22:27;;;;;;;10.73;7.53;;;33.60;1.00;;;;;;5151433;27;20379;-49
2022/07/15 11:24:54;;;;;;;12.50;8.05;;;33.70;1.00;;;;;;5153863;27;20033;-50
2022/07/15 11:27:22;;;;;;;12.57;9.25;;;33.70;1.00;;;;;;5153520;27;20066;-50
2022/07/15 11:30:01;;;;;;;8.60;7.80;;;33.90;1.00;;;;;;5153415;27;20083;-48
2022/07/15 11:32:28;;;;;;;8.98;8.07;;;34.10;1.00;;;;;;5154371;27;20042;-49
2022/07/15 11:34:56;;;;;;;8.88;8.07;;;34.90;1.00;;;;;;5152582;27;20038;-54
2022/07/15 11:37:34;;;;;;;10.65;9.50;;;36.80;1.00;;;;;;5147647;27;20093;-55
2022/07/15 11:40:08;;;;;;;9.45;8.65;;;38.50;1.00;;;;;;5153978;27;20073;-55
2022/07/15 11:45:37;;;;;;;9.00;8.00;;;37.20;1.00;;;;;;5153161;27;20133;-49
2022/07/15 11:48:06;;;;;;;;;;;36.90;1.00;;;;;;5152727;27;20035;-49
2022/07/15 11:50:33;;;;;;;9.85;7.85;;;39.30;1.00;;;;;;5152325;27;19907;-49
2022/07/15 11:52:59;;;;;;;9.95;8.50;;;41.20;1.00;;;;;;5150354;27;20407;-49
2022/07/15 11:55:25;;;;;;;9.77;8.90;;;42.70;1.00;;;;;;5153478;27;20106;-52
2022/07/15 11:57:51;;;;;;;10.90;8.98;;;43.60;1.00;;;;;;5148491;27;20106;-49
2022/07/15 12:00:19;;;;;;;9.15;8.45;;;43.70;1.00;;;;;;5149226;27;20035;-55
2022/07/15 12:02:45;;;;;;;8.43;7.65;;;43.10;1.00;;;;;;5153248;27;20019;-51
2022/07/15 12:05:11;;;;;;;9.23;8.43;;;43.60;1.00;;;;;;5153675;27;20037;-50
2022/07/15 12:07:45;;;;;;;8.45;7.85;;;44.90;1.00;;;;;;5150706;27;20034;-53
2022/07/15 12:10:12;;;;;;;8.73;8.02;;;44.90;1.00;;;;;;5151438;27;20046;-53
2022/07/15 12:13:01;;;;;;;9.65;8.70;;;45.00;1.00;;;;;;5148256;27;20023;-51
2022/07/15 12:15:31;;;;;;;9.13;8.45;;;44.40;1.00;;;;;;5142423;27;20502;-52
2022/07/15 12:17:57;;;;;;;8.63;8.05;;;43.40;1.00;;;;;;5150156;27;20038;-52
2022/07/15 12:20:23;;;;;;;8.98;8.30;;;42.60;1.00;;;;;;5152979;27;20045;-55
2022/07/15 12:23:07;;;;;;;8.90;8.20;;;42.10;1.00;;;;;;5142207;27;20025;-53
2022/07/15 12:26:08;;;;;;;9.15;8.40;;;43.30;1.00;;;;;;5147697;27;20039;-49
2022/07/15 12:28:35;;;;;;;8.07;7.57;;;44.40;1.00;;;;;;5136145;27;20054;-51
2022/07/15 12:31:02;;;;;;;10.02;8.57;;;45.90;1.00;;;;;;5142009;27;20034;-50
2022/07/15 12:33:35;;;;;;;8.57;8.00;;;45.60;1.00;;;;;;5143608;27;20026;-51
2022/07/15 12:36:26;;;;;;;9.07;8.25;;;45.80;1.00;;;;;;5153456;27;20373;-51
2022/07/15 12:39:21;;;;;;;8.32;7.72;;;45.30;1.00;;;;;;5144352;27;20106;-54
2022/07/15 12:42:04;;;;;;;9.00;8.40;;;44.30;1.00;;;;;;5144386;27;20041;-55
2022/07/15 12:44:31;;;;;;;9.52;8.82;;;43.20;1.00;;;;;;5145808;27;20022;-52
2022/07/15 12:47:04;;;;;;;8.57;8.05;;;42.40;1.00;;;;;;5146294;27;20050;-53
2022/07/15 12:49:42;;;;;;;;;;;44.00;1.00;;;;;;5144885;27;20157;-54
2022/07/15 12:52:33;;;;;;;9.60;8.98;;;45.20;1.00;;;;;;5153472;27;19907;-53
2022/07/15 12:55:19;;;;;;;10.25;9.38;;;45.60;1.00;;;;;;5147978;27;22234;-54
2022/07/15 12:57:45;;;;;;;10.30;9.70;;;47.00;1.00;;;;;;5145880;27;20015;-54
2022/07/15 13:00:22;;;;;;;10.23;9.57;;;45.80;1.00;;;;;;5146225;27;20046;-52
2022/07/15 13:02:59;;;;;;;11.63;10.68;;;45.30;1.00;;;;;;5149469;27;20664;-54
2022/07/15 13:05:27;;;;;;;10.48;9.77;;;44.70;1.00;;;;;;5142188;27;20431;-54
2022/07/15 13:07:53;;;;;;;11.00;9.93;;;43.20;1.00;;;;;;5150945;27;20098;-53
2022/07/15 13:10:18;;;;;;;10.02;9.35;;;42.50;1.00;;;;;;5146072;27;20121;-55
2022/07/15 13:12:44;;;;;;;10.50;9.80;;;42.10;1.00;;;;;;5147357;27;20011;-54
2022/07/15 13:15:10;;;;;;;10.25;9.48;;;41.80;1.00;;;;;;5150833;27;20022;-53